sensor_id;sensor_type;location;lat;lon;timestamp;pressure;altitude;pressure_sealevel;temperature;humidity
6090;BME280;3073;42.660;23.316;2023-03-14T00:01:16;94736.63;;;2.68;100.00
6090;BME280;3073;42.660;23.316;2023-03-14T00:03:44;94734.88;;;2.69;100.00
6090;BME280;3073;42.660;23.316;2023-03-14T00:06:11;94726.97;;;2.72;100.00
6090;BME280;3073;42.660;23.316;2023-03-14T00:08:38;94725.28;;;2.79;100.00
6090;BME280;3073;42.660;23.316;2023-03-14T00:11:06;94727.69;;;2.87;100.00
6090;BME280;3073;42.660;23.316;2023-03-14T00:13:33;94732.63;;;2.80;100.00
6090;BME280;3073;42.660;23.316;2023-03-14T00:16:04;94721.28;;;2.63;100.00
6090;BME280;3073;42.660;23.316;2023-03-14T00:18:32;94707.13;;;2.62;100.00
6090;BME280;3073;42.660;23.316;2023-03-14T00:21:01;94711.94;;;2.85;100.00
6090;BME280;3073;42.660;23.316;2023-03-14T00:23:30;94709.53;;;2.98;100.00
6090;BME280;3073;42.660;23.316;2023-03-14T00:25:59;94701.56;;;2.94;100.00
6090;BME280;3073;42.660;23.316;2023-03-14T00:28:26;94701.66;;;3.14;100.00
6090;BME280;3073;42.660;23.316;2023-03-14T00:30:54;94692.78;;;3.18;100.00
6090;BME280;3073;42.660;23.316;2023-03-14T00:33:21;94677.28;;;3.21;100.00
6090;BME280;3073;42.660;23.316;2023-03-14T00:35:53;94677.53;;;3.26;100.00
6090;BME280;3073;42.660;23.316;2023-03-14T00:38:21;94685.09;;;3.26;100.00
6090;BME280;3073;42.660;23.316;2023-03-14T00:40:49;94675.38;;;3.23;100.00
6090;BME280;3073;42.660;23.316;2023-03-14T00:43:19;94670.50;;;3.22;100.00
6090;BME280;3073;42.660;23.316;2023-03-14T00:45:47;94675.78;;;3.27;100.00
6090;BME280;3073;42.660;23.316;2023-03-14T00:48:14;94676.66;;;3.13;100.00
6090;BME280;3073;42.660;23.316;2023-03-14T00:50:40;94677.41;;;3.06;100.00
6090;BME280;3073;42.660;23.316;2023-03-14T00:53:07;94673.09;;;3.00;100.00
6090;BME280;3073;42.660;23.316;2023-03-14T00:55:39;94678.84;;;2.88;100.00
6090;BME280;3073;42.660;23.316;2023-03-14T00:58:06;94683.19;;;2.73;100.00
6090;BME280;3073;42.660;23.316;2023-03-14T01:00:33;94673.13;;;2.73;100.00
6090;BME280;3073;42.660;23.316;2023-03-14T01:03:00;94669.72;;;2.59;100.00
6090;BME280;3073;42.660;23.316;2023-03-14T01:05:27;94676.72;;;2.64;100.00
6090;BME280;3073;42.660;23.316;2023-03-14T01:07:54;94667.63;;;2.63;100.00
6090;BME280;3073;42.660;23.316;2023-03-14T01:10:21;94666.44;;;2.58;100.00
6090;BME280;3073;42.660;23.316;2023-03-14T01:12:55;94662.03;;;2.39;100.00
6090;BME280;3073;42.660;23.316;2023-03-14T01:15:22;94667.69;;;2.48;100.00
6090;BME280;3073;42.660;23.316;2023-03-14T01:17:49;94656.19;;;2.39;100.00
6090;BME280;3073;42.660;23.316;2023-03-14T01:20:16;94651.53;;;2.36;100.00
6090;BME280;3073;42.660;23.316;2023-03-14T01:22:44;94645.72;;;2.35;100.00
6090;BME280;3073;42.660;23.316;2023-03-14T01:25:13;94648.47;;;2.40;100.00
6090;BME280;3073;42.660;23.316;2023-03-14T01:27:40;94646.66;;;2.34;100.00
6090;BME280;3073;42.660;23.316;2023-03-14T01:30:11;94643.81;;;2.16;100.00
6090;BME280;3073;42.660;23.316;2023-03-14T01:32:38;94641.25;;;2.10;100.00
6090;BME280;3073;42.660;23.316;2023-03-14T01:35:05;94646.69;;;2.13;100.00
6090;BME280;3073;42.660;23.316;2023-03-14T01:37:32;94638.19;;;2.14;100.00
6090;BME280;3073;42.660;23.316;2023-03-14T01:39:59;94627.56;;;2.19;100.00
6090;BME280;3073;42.660;23.316;2023-03-14T01:42:26;94634.59;;;2.23;100.00
6090;BME280;3073;42.660;23.316;2023-03-14T01:44:54;94631.28;;;2.01;100.00
6090;BME280;3073;42.660;23.316;2023-03-14T01:47:23;94630.44;;;1.94;100.00
6090;BME280;3073;42.660;23.316;2023-03-14T01:49:54;94632.06;;;1.81;100.00
6090;BME280;3073;42.660;23.316;2023-03-14T01:52:25;94624.72;;;1.79;100.00
6090;BME280;3073;42.660;23.316;2023-03-14T01:54:57;94626.81;;;1.76;100.00
6090;BME280;3073;42.660;23.316;2023-03-14T01:57:29;94624.28;;;1.76;100.00
6090;BME280;3073;42.660;23.316;2023-03-14T02:00:01;94626.97;;;1.74;100.00
6090;BME280;3073;42.660;23.316;2023-03-14T02:02:37;94624.38;;;1.46;100.00
6090;BME280;3073;42.660;23.316;2023-03-14T02:05:06;94620.38;;;1.37;100.00
6090;BME280;3073;42.660;23.316;2023-03-14T02:07:36;94623.72;;;1.23;100.00
6090;BME280;3073;42.660;23.316;2023-03-14T02:10:05;94623.50;;;1.39;100.00
6090;BME280;3073;42.660;23.316;2023-03-14T02:12:33;94620.16;;;1.53;100.00
6090;BME280;3073;42.660;23.316;2023-03-14T02:15:01;94613.25;;;1.55;100.00
6090;BME280;3073;42.660;23.316;2023-03-14T02:17:28;94615.09;;;1.68;100.00
6090;BME280;3073;42.660;23.316;2023-03-14T02:20:08;94611.44;;;1.71;100.00
6090;BME280;3073;42.660;23.316;2023-03-14T02:22:39;94611.84;;;1.89;100.00
6090;BME280;3073;42.660;23.316;2023-03-14T02:25:12;94609.63;;;1.79;100.00
6090;BME280;3073;42.660;23.316;2023-03-14T02:27:43;94609.00;;;1.77;100.00
6090;BME280;3073;42.660;23.316;2023-03-14T02:30:12;94607.28;;;1.78;100.00
6090;BME280;3073;42.660;23.316;2023-03-14T02:32:42;94609.31;;;1.68;100.00
6090;BME280;3073;42.660;23.316;2023-03-14T02:35:12;94600.41;;;1.50;100.00
6090;BME280;3073;42.660;23.316;2023-03-14T02:37:43;94605.72;;;1.41;100.00
6090;BME280;3073;42.660;23.316;2023-03-14T02:40:12;94619.72;;;1.14;100.00
6090;BME280;3073;42.660;23.316;2023-03-14T02:42:39;94619.09;;;1.41;100.00
6090;BME280;3073;42.660;23.316;2023-03-14T02:45:37;94619.97;;;1.70;100.00
6090;BME280;3073;42.660;23.316;2023-03-14T02:48:07;94617.19;;;1.65;100.00
6090;BME280;3073;42.660;23.316;2023-03-14T02:50:35;94619.22;;;1.54;100.00
6090;BME280;3073;42.660;23.316;2023-03-14T02:53:02;94620.34;;;1.67;100.00
6090;BME280;3073;42.660;23.316;2023-03-14T02:55:29;94619.00;;;1.71;100.00
6090;BME280;3073;42.660;23.316;2023-03-14T02:57:56;94627.25;;;1.65;100.00
6090;BME280;3073;42.660;23.316;2023-03-14T03:00:23;94622.84;;;1.67;100.00
6090;BME280;3073;42.660;23.316;2023-03-14T03:02:51;94623.25;;;1.70;100.00
6090;BME280;3073;42.660;23.316;2023-03-14T03:05:18;94615.69;;;1.70;100.00
6090;BME280;3073;42.660;23.316;2023-03-14T03:07:44;94618.63;;;1.74;100.00
6090;BME280;3073;42.660;23.316;2023-03-14T03:10:11;94620.81;;;1.77;100.00
6090;BME280;3073;42.660;23.316;2023-03-14T03:12:38;94617.56;;;1.62;100.00
6090;BME280;3073;42.660;23.316;2023-03-14T03:15:06;94611.75;;;1.61;100.00
6090;BME280;3073;42.660;23.316;2023-03-14T03:17:33;94615.00;;;1.40;100.00
6090;BME280;3073;42.660;23.316;2023-03-14T03:20:02;94607.94;;;1.29;100.00
6090;BME280;3073;42.660;23.316;2023-03-14T03:22:30;94617.28;;;1.35;100.00
6090;BME280;3073;42.660;23.316;2023-03-14T03:24:57;94614.75;;;1.50;100.00
6090;BME280;3073;42.660;23.316;2023-03-14T03:27:24;94611.09;;;1.52;100.00
6090;BME280;3073;42.660;23.316;2023-03-14T03:29:50;94619.84;;;1.57;100.00
6090;BME280;3073;42.660;23.316;2023-03-14T03:32:17;94612.69;;;1.39;100.00
6090;BME280;3073;42.660;23.316;2023-03-14T03:34:44;94612.25;;;1.35;100.00
6090;BME280;3073;42.660;23.316;2023-03-14T03:37:12;94610.19;;;1.24;100.00
6090;BME280;3073;42.660;23.316;2023-03-14T03:39:39;94611.91;;;1.38;100.00
6090;BME280;3073;42.660;23.316;2023-03-14T03:42:06;94608.72;;;1.30;100.00
6090;BME280;3073;42.660;23.316;2023-03-14T03:44:32;94613.81;;;1.36;100.00
6090;BME280;3073;42.660;23.316;2023-03-14T03:46:59;94616.56;;;1.41;100.00
6090;BME280;3073;42.660;23.316;2023-03-14T03:49:28;94619.34;;;1.46;100.00
6090;BME280;3073;42.660;23.316;2023-03-14T03:51:55;94624.72;;;1.43;100.00
6090;BME280;3073;42.660;23.316;2023-03-14T03:54:23;94626.63;;;1.41;100.00
6090;BME280;3073;42.660;23.316;2023-03-14T03:56:50;94630.69;;;1.42;100.00
6090;BME280;3073;42.660;23.316;2023-03-14T03:59:17;94623.41;;;1.47;100.00
6090;BME280;3073;42.660;23.316;2023-03-14T04:01:44;94634.09;;;1.20;100.00
6090;BME280;3073;42.660;23.316;2023-03-14T04:04:11;94626.84;;;0.96;100.00
6090;BME280;3073;42.660;23.316;2023-03-14T04:06:38;94624.50;;;0.94;100.00
6090;BME280;3073;42.660;23.316;2023-03-14T04:09:05;94621.84;;;0.96;100.00
6090;BME280;3073;42.660;23.316;2023-03-14T04:11:34;94629.03;;;0.99;100.00
6090;BME280;3073;42.660;23.316;2023-03-14T04:14:01;94621.84;;;0.96;100.00
6090;BME280;3073;42.660;23.316;2023-03-14T04:16:28;94623.13;;;1.07;100.00
6090;BME280;3073;42.660;23.316;2023-03-14T04:18:57;94620.06;;;1.11;100.00
6090;BME280;3073;42.660;23.316;2023-03-14T04:21:24;94612.97;;;1.15;100.00
6090;BME280;3073;42.660;23.316;2023-03-14T04:23:50;94614.25;;;1.25;100.00
6090;BME280;3073;42.660;23.316;2023-03-14T04:26:17;94610.81;;;1.12;100.00
6090;BME280;3073;42.660;23.316;2023-03-14T04:28:46;94600.19;;;0.95;100.00
6090;BME280;3073;42.660;23.316;2023-03-14T04:31:16;94595.84;;;0.89;100.00
6090;BME280;3073;42.660;23.316;2023-03-14T04:33:44;94597.34;;;0.83;100.00
6090;BME280;3073;42.660;23.316;2023-03-14T04:36:11;94596.78;;;0.88;100.00
6090;BME280;3073;42.660;23.316;2023-03-14T04:38:38;94589.88;;;0.90;100.00
6090;BME280;3073;42.660;23.316;2023-03-14T04:41:06;94590.22;;;1.01;100.00
6090;BME280;3073;42.660;23.316;2023-03-14T04:43:33;94585.25;;;0.93;100.00
6090;BME280;3073;42.660;23.316;2023-03-14T04:46:01;94580.50;;;0.98;100.00
6090;BME280;3073;42.660;23.316;2023-03-14T04:48:28;94585.63;;;1.05;100.00
6090;BME280;3073;42.660;23.316;2023-03-14T04:50:55;94580.94;;;1.02;100.00
6090;BME280;3073;42.660;23.316;2023-03-14T04:53:22;94572.97;;;1.13;100.00
6090;BME280;3073;42.660;23.316;2023-03-14T04:55:49;94572.63;;;1.16;100.00
6090;BME280;3073;42.660;23.316;2023-03-14T04:58:16;94571.19;;;1.28;100.00
6090;BME280;3073;42.660;23.316;2023-03-14T05:00:43;94573.97;;;1.33;100.00
6090;BME280;3073;42.660;23.316;2023-03-14T05:03:11;94574.47;;;1.43;100.00
6090;BME280;3073;42.660;23.316;2023-03-14T05:05:39;94574.91;;;1.53;100.00
6090;BME280;3073;42.660;23.316;2023-03-14T05:08:06;94570.38;;;1.64;100.00
6090;BME280;3073;42.660;23.316;2023-03-14T05:10:33;94573.56;;;1.72;100.00
6090;BME280;3073;42.660;23.316;2023-03-14T05:13:00;94573.03;;;1.77;100.00
6090;BME280;3073;42.660;23.316;2023-03-14T05:15:27;94570.75;;;1.82;100.00
6090;BME280;3073;42.660;23.316;2023-03-14T05:17:54;94568.72;;;1.92;100.00
6090;BME280;3073;42.660;23.316;2023-03-14T05:20:22;94573.97;;;1.97;100.00
6090;BME280;3073;42.660;23.316;2023-03-14T05:22:49;94575.38;;;1.99;100.00
6090;BME280;3073;42.660;23.316;2023-03-14T05:25:16;94571.91;;;2.07;100.00
6090;BME280;3073;42.660;23.316;2023-03-14T05:27:43;94567.13;;;2.12;100.00
6090;BME280;3073;42.660;23.316;2023-03-14T05:30:10;94561.75;;;1.94;100.00
6090;BME280;3073;42.660;23.316;2023-03-14T05:32:37;94560.91;;;2.08;100.00
6090;BME280;3073;42.660;23.316;2023-03-14T05:35:07;94570.59;;;2.11;100.00
6090;BME280;3073;42.660;23.316;2023-03-14T05:37:35;94564.38;;;2.35;100.00
6090;BME280;3073;42.660;23.316;2023-03-14T05:40:06;94568.28;;;3.13;100.00
6090;BME280;3073;42.660;23.316;2023-03-14T05:42:34;94560.09;;;3.78;100.00
6090;BME280;3073;42.660;23.316;2023-03-14T05:45:01;94573.13;;;4.07;91.87
6090;BME280;3073;42.660;23.316;2023-03-14T05:47:28;94560.91;;;3.98;91.85
6090;BME280;3073;42.660;23.316;2023-03-14T05:49:54;94565.78;;;4.12;89.54
6090;BME280;3073;42.660;23.316;2023-03-14T05:52:21;94572.75;;;4.17;88.60
6090;BME280;3073;42.660;23.316;2023-03-14T05:54:50;94566.56;;;4.13;87.70
6090;BME280;3073;42.660;23.316;2023-03-14T05:57:16;94570.03;;;4.25;86.77
6090;BME280;3073;42.660;23.316;2023-03-14T05:59:43;94570.81;;;4.19;86.27
6090;BME280;3073;42.660;23.316;2023-03-14T06:02:10;94571.22;;;4.29;86.20
6090;BME280;3073;42.660;23.316;2023-03-14T06:04:37;94571.59;;;4.33;87.28
6090;BME280;3073;42.660;23.316;2023-03-14T06:07:04;94566.53;;;4.33;87.12
6090;BME280;3073;42.660;23.316;2023-03-14T06:09:31;94567.31;;;4.40;85.90
6090;BME280;3073;42.660;23.316;2023-03-14T06:12:00;94564.56;;;4.48;85.24
6090;BME280;3073;42.660;23.316;2023-03-14T06:14:27;94559.50;;;4.54;83.11
6090;BME280;3073;42.660;23.316;2023-03-14T06:16:54;94556.19;;;4.54;83.08
6090;BME280;3073;42.660;23.316;2023-03-14T06:19:20;94558.59;;;4.29;82.49
6090;BME280;3073;42.660;23.316;2023-03-14T06:21:48;94566.53;;;4.26;84.00
6090;BME280;3073;42.660;23.316;2023-03-14T06:24:15;94562.03;;;4.61;81.53
6090;BME280;3073;42.660;23.316;2023-03-14T06:26:41;94562.19;;;4.86;79.90
6090;BME280;3073;42.660;23.316;2023-03-14T06:29:10;94569.97;;;4.78;77.35
6090;BME280;3073;42.660;23.316;2023-03-14T06:31:39;94573.91;;;5.25;75.64
6090;BME280;3073;42.660;23.316;2023-03-14T06:34:05;94576.38;;;5.38;73.18
6090;BME280;3073;42.660;23.316;2023-03-14T06:36:32;94566.41;;;5.81;71.53
6090;BME280;3073;42.660;23.316;2023-03-14T06:38:59;94569.72;;;6.37;69.53
6090;BME280;3073;42.660;23.316;2023-03-14T06:41:26;94562.31;;;6.60;67.82
6090;BME280;3073;42.660;23.316;2023-03-14T06:43:53;94557.66;;;7.30;65.08
6090;BME280;3073;42.660;23.316;2023-03-14T06:46:21;94553.94;;;7.74;62.46
6090;BME280;3073;42.660;23.316;2023-03-14T06:48:48;94553.28;;;8.20;60.48
6090;BME280;3073;42.660;23.316;2023-03-14T06:51:15;94550.13;;;8.36;60.18
6090;BME280;3073;42.660;23.316;2023-03-14T06:53:41;94538.50;;;8.87;58.57
6090;BME280;3073;42.660;23.316;2023-03-14T06:56:09;94545.75;;;9.46;57.00
6090;BME280;3073;42.660;23.316;2023-03-14T06:58:35;94543.41;;;9.73;55.31
6090;BME280;3073;42.660;23.316;2023-03-14T07:01:03;94539.78;;;10.14;53.24
6090;BME280;3073;42.660;23.316;2023-03-14T07:03:31;94533.66;;;10.48;52.29
6090;BME280;3073;42.660;23.316;2023-03-14T07:05:58;94529.47;;;10.59;51.42
6090;BME280;3073;42.660;23.316;2023-03-14T07:08:25;94517.31;;;10.66;51.18
6090;BME280;3073;42.660;23.316;2023-03-14T07:10:52;94522.75;;;10.53;50.72
6090;BME280;3073;42.660;23.316;2023-03-14T07:13:18;94515.34;;;10.34;51.21
6090;BME280;3073;42.660;23.316;2023-03-14T07:15:45;94521.59;;;10.60;51.59
6090;BME280;3073;42.660;23.316;2023-03-14T07:18:12;94514.13;;;10.37;51.03
6090;BME280;3073;42.660;23.316;2023-03-14T07:20:40;94524.44;;;9.80;52.43
6090;BME280;3073;42.660;23.316;2023-03-14T07:23:07;94518.69;;;10.73;50.79
6090;BME280;3073;42.660;23.316;2023-03-14T07:25:34;94523.09;;;11.21;49.64
6090;BME280;3073;42.660;23.316;2023-03-14T07:28:01;94522.16;;;11.76;47.66
6090;BME280;3073;42.660;23.316;2023-03-14T07:30:28;94512.75;;;11.33;47.59
6090;BME280;3073;42.660;23.316;2023-03-14T07:32:54;94522.00;;;11.61;47.62
6090;BME280;3073;42.660;23.316;2023-03-14T07:35:21;94510.38;;;11.75;47.29
6090;BME280;3073;42.660;23.316;2023-03-14T07:37:49;94505.38;;;12.17;46.27
6090;BME280;3073;42.660;23.316;2023-03-14T07:40:17;94500.22;;;13.01;45.50
6090;BME280;3073;42.660;23.316;2023-03-14T07:42:43;94504.53;;;13.82;44.31
6090;BME280;3073;42.660;23.316;2023-03-14T07:45:11;94502.47;;;14.30;42.53
6090;BME280;3073;42.660;23.316;2023-03-14T07:47:38;94495.31;;;14.17;41.32
6090;BME280;3073;42.660;23.316;2023-03-14T07:50:06;94496.84;;;14.23;41.04
6090;BME280;3073;42.660;23.316;2023-03-14T07:52:33;94492.47;;;13.83;41.02
6090;BME280;3073;42.660;23.316;2023-03-14T07:55:01;94500.94;;;14.29;40.57
6090;BME280;3073;42.660;23.316;2023-03-14T07:57:28;94495.31;;;13.97;41.14
6090;BME280;3073;42.660;23.316;2023-03-14T07:59:55;94496.84;;;14.03;40.19
6090;BME280;3073;42.660;23.316;2023-03-14T08:02:22;94495.75;;;13.58;41.10
6090;BME280;3073;42.660;23.316;2023-03-14T08:04:49;94487.59;;;14.42;41.09
6090;BME280;3073;42.660;23.316;2023-03-14T08:07:17;94489.28;;;15.51;38.98
6090;BME280;3073;42.660;23.316;2023-03-14T08:09:43;94485.88;;;15.61;38.57
6090;BME280;3073;42.660;23.316;2023-03-14T08:12:12;94489.06;;;15.86;38.23
6090;BME280;3073;42.660;23.316;2023-03-14T08:14:38;94482.31;;;15.57;38.24
6090;BME280;3073;42.660;23.316;2023-03-14T08:17:05;94486.25;;;16.17;38.56
6090;BME280;3073;42.660;23.316;2023-03-14T08:19:33;94483.28;;;16.28;38.52
6090;BME280;3073;42.660;23.316;2023-03-14T08:22:00;94484.53;;;15.68;38.53
6090;BME280;3073;42.660;23.316;2023-03-14T08:24:28;94481.25;;;16.83;36.73
6090;BME280;3073;42.660;23.316;2023-03-14T08:26:55;94481.31;;;16.49;36.79
6090;BME280;3073;42.660;23.316;2023-03-14T08:29:23;94483.16;;;16.15;37.41
6090;BME280;3073;42.660;23.316;2023-03-14T08:31:50;94476.13;;;14.99;39.01
6090;BME280;3073;42.660;23.316;2023-03-14T08:34:17;94474.75;;;15.70;38.20
6090;BME280;3073;42.660;23.316;2023-03-14T08:36:44;94467.97;;;15.40;37.62
6090;BME280;3073;42.660;23.316;2023-03-14T08:39:12;94466.44;;;15.39;38.36
6090;BME280;3073;42.660;23.316;2023-03-14T08:41:39;94473.41;;;16.69;36.88
6090;BME280;3073;42.660;23.316;2023-03-14T08:44:08;94462.19;;;17.03;35.84
6090;BME280;3073;42.660;23.316;2023-03-14T08:46:36;94456.72;;;16.62;35.75
6090;BME280;3073;42.660;23.316;2023-03-14T08:49:03;94456.91;;;15.84;36.59
6090;BME280;3073;42.660;23.316;2023-03-14T08:51:29;94454.66;;;16.35;36.34
6090;BME280;3073;42.660;23.316;2023-03-14T08:53:57;94445.19;;;16.59;36.27
6090;BME280;3073;42.660;23.316;2023-03-14T08:56:23;94447.81;;;17.20;35.47
6090;BME280;3073;42.660;23.316;2023-03-14T08:58:51;94437.13;;;17.45;34.77
6090;BME280;3073;42.660;23.316;2023-03-14T09:01:18;94433.72;;;17.31;34.94
6090;BME280;3073;42.660;23.316;2023-03-14T09:03:47;94432.00;;;17.64;34.45
6090;BME280;3073;42.660;23.316;2023-03-14T09:06:14;94431.72;;;17.84;34.47
6090;BME280;3073;42.660;23.316;2023-03-14T09:08:43;94422.06;;;16.25;35.28
6090;BME280;3073;42.660;23.316;2023-03-14T09:11:11;94416.09;;;17.38;34.25
6090;BME280;3073;42.660;23.316;2023-03-14T09:13:38;94412.69;;;18.40;33.44
6090;BME280;3073;42.660;23.316;2023-03-14T09:16:06;94400.25;;;18.69;33.66
6090;BME280;3073;42.660;23.316;2023-03-14T09:18:33;94398.88;;;19.93;32.47
6090;BME280;3073;42.660;23.316;2023-03-14T09:21:01;94394.78;;;19.34;31.68
6090;BME280;3073;42.660;23.316;2023-03-14T09:23:28;94392.22;;;18.71;32.52
6090;BME280;3073;42.660;23.316;2023-03-14T09:25:55;94389.34;;;18.59;32.49
6090;BME280;3073;42.660;23.316;2023-03-14T09:28:22;94382.47;;;18.81;31.72
6090;BME280;3073;42.660;23.316;2023-03-14T09:30:49;94379.63;;;18.91;30.68
6090;BME280;3073;42.660;23.316;2023-03-14T09:33:16;94376.75;;;19.42;31.38
6090;BME280;3073;42.660;23.316;2023-03-14T09:35:43;94374.47;;;19.41;31.40
6090;BME280;3073;42.660;23.316;2023-03-14T09:38:11;94366.59;;;19.99;30.69
6090;BME280;3073;42.660;23.316;2023-03-14T09:40:38;94363.41;;;20.02;30.10
6090;BME280;3073;42.660;23.316;2023-03-14T09:43:05;94359.06;;;20.59;29.19
6090;BME280;3073;42.660;23.316;2023-03-14T09:45:34;94364.22;;;21.50;28.92
6090;BME280;3073;42.660;23.316;2023-03-14T09:48:03;94355.94;;;21.65;28.43
6090;BME280;3073;42.660;23.316;2023-03-14T09:50:35;94350.09;;;21.85;28.30
6090;BME280;3073;42.660;23.316;2023-03-14T09:53:08;94342.22;;;22.57;28.00
6090;BME280;3073;42.660;23.316;2023-03-14T09:55:39;94336.56;;;21.63;27.53
6090;BME280;3073;42.660;23.316;2023-03-14T09:58:11;94331.09;;;21.30;27.65
6090;BME280;3073;42.660;23.316;2023-03-14T10:00:38;94331.88;;;20.31;28.59
6090;BME280;3073;42.660;23.316;2023-03-14T10:03:22;94319.81;;;19.95;29.58
6090;BME280;3073;42.660;23.316;2023-03-14T10:05:51;94314.78;;;20.30;29.72
6090;BME280;3073;42.660;23.316;2023-03-14T10:08:17;94313.03;;;19.55;30.33
6090;BME280;3073;42.660;23.316;2023-03-14T10:10:46;94310.31;;;20.22;30.03
6090;BME280;3073;42.660;23.316;2023-03-14T10:13:16;94312.50;;;21.28;28.95
6090;BME280;3073;42.660;23.316;2023-03-14T10:15:48;94302.66;;;21.68;29.18
6090;BME280;3073;42.660;23.316;2023-03-14T10:18:15;94294.91;;;22.05;28.13
6090;BME280;3073;42.660;23.316;2023-03-14T10:20:43;94289.47;;;20.27;29.36
6090;BME280;3073;42.660;23.316;2023-03-14T10:23:26;94281.03;;;20.13;29.77
6090;BME280;3073;42.660;23.316;2023-03-14T10:26:06;94274.28;;;19.64;29.75
6090;BME280;3073;42.660;23.316;2023-03-14T10:28:38;94261.94;;;19.91;30.22
6090;BME280;3073;42.660;23.316;2023-03-14T10:31:05;94268.19;;;19.68;29.67
6090;BME280;3073;42.660;23.316;2023-03-14T10:33:34;94251.56;;;20.82;29.70
6090;BME280;3073;42.660;23.316;2023-03-14T10:36:03;94251.28;;;21.01;29.55
6090;BME280;3073;42.660;23.316;2023-03-14T10:38:31;94238.31;;;21.10;29.09
6090;BME280;3073;42.660;23.316;2023-03-14T10:41:00;94231.13;;;19.90;30.66
6090;BME280;3073;42.660;23.316;2023-03-14T10:43:33;94228.75;;;19.10;31.91
6090;BME280;3073;42.660;23.316;2023-03-14T10:46:05;94219.69;;;19.43;31.86
6090;BME280;3073;42.660;23.316;2023-03-14T10:48:35;94215.34;;;19.08;32.45
6090;BME280;3073;42.660;23.316;2023-03-14T10:51:05;94220.69;;;20.21;31.07
6090;BME280;3073;42.660;23.316;2023-03-14T10:53:38;94201.63;;;20.17;30.66
6090;BME280;3073;42.660;23.316;2023-03-14T10:56:06;94196.78;;;20.24;31.24
6090;BME280;3073;42.660;23.316;2023-03-14T10:58:38;94194.88;;;21.44;30.70
6090;BME280;3073;42.660;23.316;2023-03-14T11:01:17;94189.34;;;21.54;30.29
6090;BME280;3073;42.660;23.316;2023-03-14T11:03:56;94186.75;;;21.92;29.67
6090;BME280;3073;42.660;23.316;2023-03-14T11:06:30;94176.59;;;22.08;29.92
6090;BME280;3073;42.660;23.316;2023-03-14T11:09:05;94166.25;;;21.62;30.39
6090;BME280;3073;42.660;23.316;2023-03-14T11:11:35;94163.13;;;22.06;29.17
6090;BME280;3073;42.660;23.316;2023-03-14T11:14:12;94164.47;;;21.45;30.75
6090;BME280;3073;42.660;23.316;2023-03-14T11:16:52;94153.03;;;21.75;30.13
6090;BME280;3073;42.660;23.316;2023-03-14T11:19:43;94148.41;;;21.89;30.16
6090;BME280;3073;42.660;23.316;2023-03-14T11:22:20;94131.34;;;22.63;29.05
6090;BME280;3073;42.660;23.316;2023-03-14T11:25:04;94123.66;;;23.44;28.85
6090;BME280;3073;42.660;23.316;2023-03-14T11:27:40;94117.97;;;21.31;30.03
6090;BME280;3073;42.660;23.316;2023-03-14T11:30:17;94114.66;;;20.41;31.31
6090;BME280;3073;42.660;23.316;2023-03-14T11:32:46;94108.03;;;19.36;32.84
6090;BME280;3073;42.660;23.316;2023-03-14T11:35:22;94107.09;;;19.63;32.59
6090;BME280;3073;42.660;23.316;2023-03-14T11:37:54;94101.94;;;19.80;32.34
6090;BME280;3073;42.660;23.316;2023-03-14T11:40:23;94090.44;;;20.92;31.59
6090;BME280;3073;42.660;23.316;2023-03-14T11:42:59;94086.91;;;20.08;31.59
6090;BME280;3073;42.660;23.316;2023-03-14T11:45:32;94082.38;;;20.94;30.68
6090;BME280;3073;42.660;23.316;2023-03-14T11:48:24;94077.00;;;20.35;31.10
6090;BME280;3073;42.660;23.316;2023-03-14T11:50:57;94072.56;;;20.01;31.44
6090;BME280;3073;42.660;23.316;2023-03-14T11:53:43;94067.97;;;20.67;30.98
6090;BME280;3073;42.660;23.316;2023-03-14T11:56:19;94062.59;;;21.19;30.67
6090;BME280;3073;42.660;23.316;2023-03-14T11:58:54;94055.97;;;22.42;29.51
6090;BME280;3073;42.660;23.316;2023-03-14T12:01:29;94055.25;;;22.74;29.25
6090;BME280;3073;42.660;23.316;2023-03-14T12:04:05;94053.31;;;22.50;28.27
6090;BME280;3073;42.660;23.316;2023-03-14T12:06:47;94043.16;;;22.25;29.06
6090;BME280;3073;42.660;23.316;2023-03-14T12:09:15;94039.53;;;21.76;29.40
6090;BME280;3073;42.660;23.316;2023-03-14T12:11:47;94034.50;;;22.33;29.18
6090;BME280;3073;42.660;23.316;2023-03-14T12:14:22;94021.41;;;21.46;29.28
6090;BME280;3073;42.660;23.316;2023-03-14T12:16:55;94010.28;;;21.08;29.80
6090;BME280;3073;42.660;23.316;2023-03-14T12:19:39;94008.56;;;20.83;30.21
6090;BME280;3073;42.660;23.316;2023-03-14T12:22:24;94010.25;;;21.46;29.89
6090;BME280;3073;42.660;23.316;2023-03-14T12:24:56;94003.19;;;19.30;31.92
6090;BME280;3073;42.660;23.316;2023-03-14T12:30:38;93989.31;;;21.22;30.05
6090;BME280;3073;42.660;23.316;2023-03-14T12:33:29;93984.59;;;22.06;29.29
6090;BME280;3073;42.660;23.316;2023-03-14T12:36:03;93982.19;;;22.34;29.01
6090;BME280;3073;42.660;23.316;2023-03-14T12:38:46;93982.06;;;20.69;29.82
6090;BME280;3073;42.660;23.316;2023-03-14T12:41:20;93974.81;;;20.91;30.03
6090;BME280;3073;42.660;23.316;2023-03-14T12:43:50;93971.59;;;20.94;30.18
6090;BME280;3073;42.660;23.316;2023-03-14T12:46:22;93972.88;;;21.59;29.18
6090;BME280;3073;42.660;23.316;2023-03-14T12:48:54;93966.94;;;21.08;29.23
6090;BME280;3073;42.660;23.316;2023-03-14T12:51:29;93962.38;;;21.76;29.73
6090;BME280;3073;42.660;23.316;2023-03-14T12:54:21;93945.97;;;21.64;29.52
6090;BME280;3073;42.660;23.316;2023-03-14T12:57:05;93942.03;;;22.44;28.18
6090;BME280;3073;42.660;23.316;2023-03-14T12:59:35;93944.22;;;23.15;28.16
6090;BME280;3073;42.660;23.316;2023-03-14T13:02:17;93939.88;;;23.06;27.46
6090;BME280;3073;42.660;23.316;2023-03-14T13:04:51;93942.66;;;24.05;27.07
6090;BME280;3073;42.660;23.316;2023-03-14T13:10:26;93932.66;;;23.40;27.95
6090;BME280;3073;42.660;23.316;2023-03-14T13:12:57;93917.09;;;23.28;27.58
6090;BME280;3073;42.660;23.316;2023-03-14T13:15:31;93918.75;;;23.60;27.55
6090;BME280;3073;42.660;23.316;2023-03-14T13:18:02;93910.00;;;23.80;27.08
6090;BME280;3073;42.660;23.316;2023-03-14T13:20:38;93903.56;;;24.05;26.33
6090;BME280;3073;42.660;23.316;2023-03-14T13:23:20;93902.34;;;22.11;27.84
6090;BME280;3073;42.660;23.316;2023-03-14T13:25:47;93899.56;;;21.62;28.70
6090;BME280;3073;42.660;23.316;2023-03-14T13:28:14;93891.97;;;22.59;28.51
6090;BME280;3073;42.660;23.316;2023-03-14T13:30:44;93888.47;;;23.16;27.21